Time;durP1;ratioP1;P1;durP2;ratioP2;P2;SDS_P1;SDS_P2;PMS_P1;PMS_P2;Temp;Humidity;BMP_temperature;BMP_pressure;BME280_temperature;BME280_humidity;BME280_pressure;Samples;Min_cycle;Max_cycle;Signal;HPM_P1;HPM_P2
2022/10/20 00:01:04;;;;;;;;;;;;;;;;;;4937187;29;20425;-93
2022/10/20 00:03:29;;;;;;;;;;;;;;;;;;4937434;29;20392;-91
2022/10/20 00:06:04;;;;;;;;;;;;;;;;;;4936721;29;19923;-87
2022/10/20 00:08:30;;;;;;;;;;;;;;;;;;4937274;29;20021;-92
2022/10/20 00:10:55;;;;;;;;;;;;;;;;;;4935886;29;19966;-93
2022/10/20 00:13:21;;;;;;;;;;;;;;;;;;4938007;29;19974;-92
2022/10/20 00:15:47;;;;;;;;;;;;;;;;;;4938831;29;20009;-92
2022/10/20 00:18:13;;;;;;;;;;;;;;;;;;4939469;29;19919;-93
2022/10/20 00:20:38;;;;;;;;;;;;;;;;;;4940226;29;19969;-89
2022/10/20 00:23:04;;;;;;;;;;;;;;;;;;4941620;29;20010;-91
2022/10/20 00:25:29;;;;;;;;;;;;;;;;;;4941097;29;20341;-92
2022/10/20 00:27:55;;;;;;;;;;;;;;;;;;4940959;29;19919;-92
2022/10/20 00:30:20;;;;;;;;;;;;;;;;;;4941030;29;19919;-92
2022/10/20 00:32:46;;;;;;;;;;;;;;;;;;4955321;29;19929;-91
2022/10/20 00:35:11;;;;;;;;;;;;;;;;;;4940544;29;19926;-91
2022/10/20 00:37:37;;;;;;;;;;;;;;;;;;4940687;29;19919;-90
2022/10/20 00:40:02;;;;;;;;;;;;;;;;;;4940295;29;19967;-90
2022/10/20 00:42:28;;;;;;;;;;;;;;;;;;4940609;29;19926;-92
2022/10/20 00:44:58;;;;;;;;;;;;;;;;;;4939934;29;19954;-93
2022/10/20 00:47:42;;;;;;;;;;;;;;;;;;4940572;29;20507;-88
2022/10/20 00:50:10;;;;;;;;;;;;;;;;;;4940140;29;20275;-93
2022/10/20 00:52:36;;;;;;;;;;;;;;;;;;4940105;29;19923;-93
2022/10/20 00:55:02;;;;;;;;;;;;;;;;;;4940095;29;19918;-92
2022/10/20 00:57:28;;;;;;;;;;;;;;;;;;4939970;29;20298;-91
2022/10/20 00:59:54;;;;;;;;;;;;;;;;;;4939650;29;19923;-88
2022/10/20 01:02:19;;;;;;;;;;;;;;;;;;4939774;29;20437;-88
2022/10/20 01:04:45;;;;;;;;;;;;;;;;;;4938251;29;20468;-90
2022/10/20 01:07:10;;;;;;;;;;;;;;;;;;4940058;29;19942;-92
2022/10/20 01:09:37;;;;;;;;;;;;;;;;;;4940028;29;19927;-92
2022/10/20 01:12:14;;;;;;;;;;;;;;;;;;4939737;29;20021;-92
2022/10/20 01:14:44;;;;;;;;;;;;;;;;;;4938792;29;19927;-92
2022/10/20 01:17:22;;;;;;;;;;;;;;;;;;4939730;29;20378;-91
2022/10/20 01:20:03;;;;;;;;;;;;;;;;;;4940377;29;19982;-90
2022/10/20 01:22:31;;;;;;;;;;;;;;;;;;4939818;29;19918;-93
2022/10/20 01:25:06;;;;;;;;;;;;;;;;;;4939629;29;19918;-90
2022/10/20 01:27:42;;;;;;;;;;;;;;;;;;4938138;29;19958;-92
2022/10/20 01:30:12;;;;;;;;;;;;;;;;;;4938734;29;19919;-92
2022/10/20 01:32:46;;;;;;;;;;;;;;;;;;4938389;29;19925;-93
2022/10/20 01:35:18;;;;;;;;;;;;;;;;;;4939203;29;19919;-92
2022/10/20 01:37:50;;;;;;;;;;;;;;;;;;4954149;29;19919;-90
2022/10/20 01:40:25;;;;;;;;;;;;;;;;;;4939300;29;19919;-91
2022/10/20 01:42:53;;;;;;;;;;;;;;;;;;4939316;29;19925;-94
2022/10/20 01:45:20;;;;;;;;;;;;;;;;;;4939245;29;19923;-93
2022/10/20 01:47:46;;;;;;;;;;;;;;;;;;4920551;29;20017;-92
2022/10/20 01:50:13;;;;;;;;;;;;;;;;;;4920319;29;19925;-91
2022/10/20 01:52:38;;;;;;;;;;;;;;;;;;4919859;29;19923;-93
2022/10/20 01:55:11;;;;;;;;;;;;;;;;;;4920255;29;19919;-92
2022/10/20 01:57:55;;;;;;;;;;;;;;;;;;4920480;29;19925;-93
2022/10/20 02:00:21;;;;;;;;;;;;;;;;;;4919838;29;19942;-91
2022/10/20 02:03:01;;;;;;;;;;;;;;;;;;4919863;29;20446;-92
2022/10/20 02:05:45;;;;;;;;;;;;;;;;;;4919734;29;19919;-91
2022/10/20 02:08:11;;;;;;;;;;;;;;;;;;4919392;29;19923;-92
2022/10/20 02:10:46;;;;;;;;;;;;;;;;;;4919811;29;19975;-92
2022/10/20 02:13:12;;;;;;;;;;;;;;;;;;4919609;29;19919;-91
2022/10/20 02:15:39;;;;;;;;;;;;;;;;;;4918425;29;19927;-89
2022/10/20 02:18:06;;;;;;;;;;;;;;;;;;4919568;29;19926;-92
2022/10/20 02:20:32;;;;;;;;;;;;;;;;;;4919501;29;19919;-89
2022/10/20 02:22:58;;;;;;;;;;;;;;;;;;4919136;29;19974;-86
2022/10/20 02:25:25;;;;;;;;;;;;;;;;;;4919366;29;20018;-89
2022/10/20 02:27:51;;;;;;;;;;;;;;;;;;4919407;29;19923;-92
2022/10/20 02:30:17;;;;;;;;;;;;;;;;;;4919013;29;20298;-91
2022/10/20 02:32:43;;;;;;;;;;;;;;;;;;4918013;29;19919;-90
2022/10/20 02:35:11;;;;;;;;;;;;;;;;;;4919254;29;19923;-88
2022/10/20 02:37:36;;;;;;;;;;;;;;;;;;4917995;29;20375;-92
2022/10/20 02:40:02;;;;;;;;;;;;;;;;;;4919223;29;19926;-90
2022/10/20 02:42:28;;;;;;;;;;;;;;;;;;4918964;29;19919;-93
2022/10/20 02:44:54;;;;;;;;;;;;;;;;;;4918924;29;19919;-94
2022/10/20 02:47:21;;;;;;;;;;;;;;;;;;4919273;29;20442;-93
2022/10/20 02:49:46;;;;;;;;;;;;;;;;;;4919387;29;19927;-93
2022/10/20 02:52:12;;;;;;;;;;;;;;;;;;4918588;29;19923;-91
2022/10/20 02:54:37;;;;;;;;;;;;;;;;;;4919064;29;19920;-93
2022/10/20 02:57:03;;;;;;;;;;;;;;;;;;4918860;29;19927;-91
2022/10/20 02:59:28;;;;;;;;;;;;;;;;;;4917857;29;20399;-93
2022/10/20 03:01:54;;;;;;;;;;;;;;;;;;4922668;29;19925;-91
2022/10/20 03:04:19;;;;;;;;;;;;;;;;;;4919017;29;19925;-93
2022/10/20 03:06:44;;;;;;;;;;;;;;;;;;4935158;29;20026;-90
2022/10/20 03:09:10;;;;;;;;;;;;;;;;;;4937517;29;20325;-90
2022/10/20 03:11:35;;;;;;;;;;;;;;;;;;4941303;28;19903;-90
2022/10/20 03:14:01;;;;;;;;;;;;;;;;;;4953510;28;19923;-87
2022/10/20 03:16:28;;;;;;;;;;;;;;;;;;4945751;29;19910;-87
2022/10/20 03:18:53;;;;;;;;;;;;;;;;;;4970414;29;19914;-89
2022/10/20 03:21:20;;;;;;;;;;;;;;;;;;4953706;29;19990;-87
2022/10/20 03:23:46;;;;;;;;;;;;;;;;;;4949010;29;19919;-89
2022/10/20 03:26:11;;;;;;;;;;;;;;;;;;4942347;29;19919;-89
2022/10/20 03:28:37;;;;;;;;;;;;;;;;;;4929105;29;19919;-88
2022/10/20 03:31:03;;;;;;;;;;;;;;;;;;4927230;29;20373;-91
2022/10/20 03:33:29;;;;;;;;;;;;;;;;;;4942146;29;19926;-92
2022/10/20 03:35:54;;;;;;;;;;;;;;;;;;4927518;29;19926;-87
2022/10/20 03:38:19;;;;;;;;;;;;;;;;;;4938709;29;19926;-90
2022/10/20 03:40:45;;;;;;;;;;;;;;;;;;4940106;29;19929;-88
2022/10/20 03:43:10;;;;;;;;;;;;;;;;;;4938356;29;20274;-90
2022/10/20 03:45:36;;;;;;;;;;;;;;;;;;4941108;29;20282;-89
2022/10/20 03:48:01;;;;;;;;;;;;;;;;;;4938350;29;19925;-90
2022/10/20 03:50:27;;;;;;;;;;;;;;;;;;4938686;29;20009;-90
2022/10/20 03:52:52;;;;;;;;;;;;;;;;;;4938816;29;19970;-90
2022/10/20 03:55:18;;;;;;;;;;;;;;;;;;4925234;29;20399;-91
2022/10/20 03:57:45;;;;;;;;;;;;;;;;;;4931367;29;19925;-88
2022/10/20 04:00:11;;;;;;;;;;;;;;;;;;4940165;29;19950;-91
2022/10/20 04:02:37;;;;;;;;;;;;;;;;;;4937789;29;19978;-91
2022/10/20 04:05:03;;;;;;;;;;;;;;;;;;4940567;29;19919;-91
2022/10/20 04:07:29;;;;;;;;;;;;;;;;;;4939434;29;19958;-92
2022/10/20 04:09:55;;;;;;;;;;;;;;;;;;4938959;28;20374;-92
2022/10/20 04:12:23;;;;;;;;;;;;;;;;;;4940907;29;19934;-86
2022/10/20 04:14:56;;;;;;;;;;;;;;;;;;4939218;29;19920;-86
2022/10/20 04:17:21;;;;;;;;;;;;;;;;;;4940254;29;19919;-85
2022/10/20 04:19:47;;;;;;;;;;;;;;;;;;4945414;29;19950;-89
2022/10/20 04:22:13;;;;;;;;;;;;;;;;;;4938142;29;19926;-87
2022/10/20 04:24:39;;;;;;;;;;;;;;;;;;4940206;29;20017;-86
2022/10/20 04:27:05;;;;;;;;;;;;;;;;;;4958620;29;20001;-85
2022/10/20 04:29:30;;;;;;;;;;;;;;;;;;4960204;28;19973;-92
2022/10/20 04:31:56;;;;;;;;;;;;;;;;;;4945676;29;19957;-91
2022/10/20 04:34:21;;;;;;;;;;;;;;;;;;4942663;29;20373;-92
2022/10/20 04:36:46;;;;;;;;;;;;;;;;;;4939973;29;19970;-89
2022/10/20 04:39:12;;;;;;;;;;;;;;;;;;4943526;29;19919;-93
2022/10/20 04:41:37;;;;;;;;;;;;;;;;;;4941186;29;19926;-93
2022/10/20 04:44:03;;;;;;;;;;;;;;;;;;4936451;29;20445;-89
2022/10/20 04:46:28;;;;;;;;;;;;;;;;;;4927803;29;19950;-90
2022/10/20 04:48:55;;;;;;;;;;;;;;;;;;4933015;29;19956;-92
2022/10/20 04:51:21;;;;;;;;;;;;;;;;;;4933054;29;19938;-91
2022/10/20 04:53:46;;;;;;;;;;;;;;;;;;4956952;29;19919;-93
2022/10/20 04:56:13;;;;;;;;;;;;;;;;;;4940964;29;20293;-93
2022/10/20 04:58:38;;;;;;;;;;;;;;;;;;4937863;29;19919;-91
2022/10/20 05:01:05;;;;;;;;;;;;;;;;;;4940949;29;19919;-90
2022/10/20 05:03:30;;;;;;;;;;;;;;;;;;4938558;29;19954;-92
2022/10/20 05:06:16;;;;;;;;;;;;;;;;;;4940772;29;19950;-92
2022/10/20 05:08:42;;;;;;;;;;;;;;;;;;4944555;29;20061;-91
2022/10/20 05:11:08;;;;;;;;;;;;;;;;;;4946396;29;19930;-93
2022/10/20 05:13:34;;;;;;;;;;;;;;;;;;4946225;29;19919;-94
2022/10/20 05:16:00;;;;;;;;;;;;;;;;;;4945255;29;19986;-93
2022/10/20 05:18:25;;;;;;;;;;;;;;;;;;4947625;29;20338;-93
2022/10/20 05:20:51;;;;;;;;;;;;;;;;;;4944765;29;19962;-91
2022/10/20 05:23:16;;;;;;;;;;;;;;;;;;4946151;29;19919;-90
2022/10/20 05:25:42;;;;;;;;;;;;;;;;;;4944944;29;19915;-91
2022/10/20 05:28:07;;;;;;;;;;;;;;;;;;4944068;29;19918;-90
2022/10/20 05:30:33;;;;;;;;;;;;;;;;;;4943272;29;19926;-85
2022/10/20 05:32:59;;;;;;;;;;;;;;;;;;4945362;29;20013;-88
2022/10/20 05:35:24;;;;;;;;;;;;;;;;;;4946354;29;19965;-90
2022/10/20 05:37:50;;;;;;;;;;;;;;;;;;4946791;29;19966;-85
2022/10/20 05:40:15;;;;;;;;;;;;;;;;;;4945377;29;19915;-89
2022/10/20 05:42:40;;;;;;;;;;;;;;;;;;4943001;29;19942;-87
2022/10/20 05:45:07;;;;;;;;;;;;;;;;;;4946849;29;19946;-87
2022/10/20 05:47:33;;;;;;;;;;;;;;;;;;4944626;29;19926;-86
2022/10/20 05:49:59;;;;;;;;;;;;;;;;;;4944988;29;20298;-87
2022/10/20 05:52:24;;;;;;;;;;;;;;;;;;4945845;29;19927;-88
2022/10/20 05:54:50;;;;;;;;;;;;;;;;;;4946456;29;19947;-86
2022/10/20 05:57:16;;;;;;;;;;;;;;;;;;4946596;29;19915;-88
2022/10/20 05:59:42;;;;;;;;;;;;;;;;;;4944174;29;19942;-86
2022/10/20 06:02:08;;;;;;;;;;;;;;;;;;4943269;29;19919;-89
2022/10/20 06:04:34;;;;;;;;;;;;;;;;;;4942973;29;20397;-87
2022/10/20 06:06:59;;;;;;;;;;;;;;;;;;4943380;29;19923;-91
2022/10/20 06:09:25;;;;;;;;;;;;;;;;;;4947001;29;19919;-86
2022/10/20 06:11:50;;;;;;;;;;;;;;;;;;4945263;29;19915;-86
2022/10/20 06:14:16;;;;;;;;;;;;;;;;;;4944522;29;19918;-90
2022/10/20 06:16:42;;;;;;;;;;;;;;;;;;4942938;29;19926;-89
2022/10/20 06:19:07;;;;;;;;;;;;;;;;;;4941663;29;19922;-86
2022/10/20 06:21:34;;;;;;;;;;;;;;;;;;4945476;29;20275;-92
2022/10/20 06:24:03;;;;;;;;;;;;;;;;;;4944405;29;19938;-91
2022/10/20 06:26:31;;;;;;;;;;;;;;;;;;4946931;29;19918;-87
2022/10/20 06:28:57;;;;;;;;;;;;;;;;;;4945061;29;19941;-91
2022/10/20 06:31:23;;;;;;;;;;;;;;;;;;4944105;29;20433;-90
2022/10/20 06:33:49;;;;;;;;;;;;;;;;;;4943345;29;20405;-93
2022/10/20 06:36:15;;;;;;;;;;;;;;;;;;4946401;29;19919;-93
2022/10/20 06:38:41;;;;;;;;;;;;;;;;;;4947226;29;20386;-91
2022/10/20 06:41:09;;;;;;;;;;;;;;;;;;4943108;29;19946;-92
2022/10/20 06:43:35;;;;;;;;;;;;;;;;;;4947729;29;20005;-92
2022/10/20 06:46:02;;;;;;;;;;;;;;;;;;4948369;29;19926;-93
2022/10/20 06:48:27;;;;;;;;;;;;;;;;;;4948818;29;19919;-92
2022/10/20 06:50:55;;;;;;;;;;;;;;;;;;4948646;29;19919;-92
2022/10/20 06:53:20;;;;;;;;;;;;;;;;;;4949775;29;19919;-90
2022/10/20 06:55:54;;;;;;;;;;;;;;;;;;4948987;29;19919;-93
2022/10/20 06:58:19;;;;;;;;;;;;;;;;;;4950442;29;19942;-92
2022/10/20 07:00:44;;;;;;;;;;;;;;;;;;4947162;29;19918;-89
2022/10/20 07:03:10;;;;;;;;;;;;;;;;;;4942703;29;20390;-92
2022/10/20 07:05:35;;;;;;;;;;;;;;;;;;4942479;29;19914;-92
2022/10/20 07:08:01;;;;;;;;;;;;;;;;;;4946742;29;19926;-87
2022/10/20 07:10:26;;;;;;;;;;;;;;;;;;4948694;29;19966;-87
2022/10/20 07:12:52;;;;;;;;;;;;;;;;;;4962173;29;20297;-93
2022/10/20 07:15:17;;;;;;;;;;;;;;;;;;4949151;29;19974;-86
2022/10/20 07:17:42;;;;;;;;;;;;;;;;;;4965027;28;19906;-89
2022/10/20 07:20:11;;;;;;;;;;;;;;;;;;4961601;28;19934;-87
2022/10/20 07:22:36;;;;;;;;;;;;;;;;;;4961863;28;19962;-87
2022/10/20 07:25:05;;;;;;;;;;;;;;;;;;4966439;28;19922;-84
2022/10/20 07:27:30;;;;;;;;;;;;;;;;;;4941968;29;20373;-86
2022/10/20 07:29:56;;;;;;;;;;;;;;;;;;4939468;29;19969;-85
2022/10/20 07:32:21;;;;;;;;;;;;;;;;;;4942309;29;19941;-91
2022/10/20 07:34:46;;;;;;;;;;;;;;;;;;4940843;29;20281;-88
2022/10/20 07:37:13;;;;;;;;;;;;;;;;;;4943085;29;19980;-87
2022/10/20 07:39:38;;;;;;;;;;;;;;;;;;4965224;29;19923;-88
2022/10/20 07:42:04;;;;;;;;;;;;;;;;;;4950103;29;19922;-92
2022/10/20 07:44:29;;;;;;;;;;;;;;;;;;4948558;29;20356;-90
2022/10/20 07:46:54;;;;;;;;;;;;;;;;;;4950337;29;20386;-87
2022/10/20 07:49:20;;;;;;;;;;;;;;;;;;4947689;29;19919;-88
2022/10/20 07:51:45;;;;;;;;;;;;;;;;;;4946977;29;19929;-87
2022/10/20 07:54:12;;;;;;;;;;;;;;;;;;4947408;29;19926;-89
2022/10/20 07:56:58;;;;;;;;;;;;;;;;;;4953382;29;19918;-87
2022/10/20 07:59:43;;;;;;;;;;;;;;;;;;4956733;28;19919;-87
2022/10/20 08:02:29;;;;;;;;;;;;;;;;;;4952560;28;19949;-88
2022/10/20 08:04:54;;;;;;;;;;;;;;;;;;4969610;28;19930;-86
2022/10/20 08:07:20;;;;;;;;;;;;;;;;;;4957346;29;19986;-92
2022/10/20 08:09:46;;;;;;;;;;;;;;;;;;4951826;29;19918;-94
2022/10/20 08:12:11;;;;;;;;;;;;;;;;;;4965907;28;19923;-93
2022/10/20 08:14:36;;;;;;;;;;;;;;;;;;4956406;29;19903;-89
2022/10/20 08:17:03;;;;;;;;;;;;;;;;;;4958508;28;19930;-93
2022/10/20 08:19:32;;;;;;;;;;;;;;;;;;4971795;28;19919;-94
2022/10/20 08:21:58;;;;;;;;;;;;;;;;;;4956022;29;19919;-91
2022/10/20 08:24:23;;;;;;;;;;;;;;;;;;4959224;28;19982;-88
2022/10/20 08:26:49;;;;;;;;;;;;;;;;;;4974988;28;19923;-86
2022/10/20 08:29:15;;;;;;;;;;;;;;;;;;4974469;28;19947;-93
2022/10/20 08:31:42;;;;;;;;;;;;;;;;;;4951429;29;19923;-87
2022/10/20 08:34:07;;;;;;;;;;;;;;;;;;4972485;28;19907;-87
2022/10/20 08:36:36;;;;;;;;;;;;;;;;;;4969287;28;19942;-91
2022/10/20 08:39:02;;;;;;;;;;;;;;;;;;4948625;29;19926;-86
2022/10/20 08:41:32;;;;;;;;;;;;;;;;;;4949156;29;19919;-91
2022/10/20 08:44:01;;;;;;;;;;;;;;;;;;4972352;29;19927;-89
2022/10/20 08:46:36;;;;;;;;;;;;;;;;;;4961944;28;19941;-89
2022/10/20 08:49:02;;;;;;;;;;;;;;;;;;4955980;29;19943;-93
2022/10/20 08:51:30;;;;;;;;;;;;;;;;;;4951005;29;19994;-94
2022/10/20 08:53:58;;;;;;;;;;;;;;;;;;4953016;29;19919;-92
2022/10/20 08:56:24;;;;;;;;;;;;;;;;;;4953955;29;19919;-88
2022/10/20 08:58:50;;;;;;;;;;;;;;;;;;4959445;28;19926;-89
2022/10/20 09:01:45;;;;;;;;;;;;;;;;;;4958671;29;19922;-87
2022/10/20 09:04:17;;;;;;;;;;;;;;;;;;4942129;29;19929;-87
2022/10/20 09:06:44;;;;;;;;;;;;;;;;;;4938891;29;20326;-88
2022/10/20 09:09:13;;;;;;;;;;;;;;;;;;4952312;29;19926;-86
2022/10/20 09:11:43;;;;;;;;;;;;;;;;;;4949939;29;19922;-89
2022/10/20 09:14:15;;;;;;;;;;;;;;;;;;4948862;29;19926;-84
2022/10/20 09:16:41;;;;;;;;;;;;;;;;;;4945950;29;20424;-91
2022/10/20 09:19:14;;;;;;;;;;;;;;;;;;4945118;29;19922;-86
2022/10/20 09:21:40;;;;;;;;;;;;;;;;;;4946323;29;20417;-84
2022/10/20 09:24:05;;;;;;;;;;;;;;;;;;4944188;29;19919;-91
2022/10/20 09:26:35;;;;;;;;;;;;;;;;;;4948636;29;19937;-88
2022/10/20 09:29:06;;;;;;;;;;;;;;;;;;4946564;29;19925;-88
2022/10/20 09:31:32;;;;;;;;;;;;;;;;;;4947277;29;19919;-87
2022/10/20 09:33:58;;;;;;;;;;;;;;;;;;4946514;29;19926;-88
2022/10/20 09:36:28;;;;;;;;;;;;;;;;;;4944949;29;19927;-90
2022/10/20 09:38:53;;;;;;;;;;;;;;;;;;4944462;29;20372;-89
2022/10/20 09:41:20;;;;;;;;;;;;;;;;;;4947766;29;20009;-88
2022/10/20 09:43:52;;;;;;;;;;;;;;;;;;4945762;29;19919;-88
2022/10/20 09:46:20;;;;;;;;;;;;;;;;;;4927763;29;20294;-86
2022/10/20 09:48:48;;;;;;;;;;;;;;;;;;4945780;29;19926;-89
2022/10/20 09:51:17;;;;;;;;;;;;;;;;;;4948524;29;19947;-86
2022/10/20 09:53:49;;;;;;;;;;;;;;;;;;4946745;29;19925;-89
2022/10/20 09:56:28;;;;;;;;;;;;;;;;;;4946429;29;19919;-84
2022/10/20 09:58:55;;;;;;;;;;;;;;;;;;4946552;29;19923;-89
2022/10/20 10:01:20;;;;;;;;;;;;;;;;;;4949114;29;20402;-85
2022/10/20 10:03:51;;;;;;;;;;;;;;;;;;4949522;29;19946;-92
2022/10/20 10:06:24;;;;;;;;;;;;;;;;;;4949790;29;19923;-92
2022/10/20 10:08:50;;;;;;;;;;;;;;;;;;4950446;29;19922;-92
2022/10/20 10:11:16;;;;;;;;;;;;;;;;;;4946338;29;19983;-93
2022/10/20 10:13:43;;;;;;;;;;;;;;;;;;4945876;28;19919;-93
2022/10/20 10:16:13;;;;;;;;;;;;;;;;;;4947100;29;20404;-92
2022/10/20 10:18:38;;;;;;;;;;;;;;;;;;4949466;29;19919;-93
2022/10/20 10:21:08;;;;;;;;;;;;;;;;;;4948351;29;20013;-93
2022/10/20 10:24:00;;;;;;;;;;;;;;;;;;4953870;29;19985;-93
2022/10/20 10:26:53;;;;;;;;;;;;;;;;;;4952328;29;19919;-92
2022/10/20 10:29:37;;;;;;;;;;;;;;;;;;4957184;29;19919;-92
2022/10/20 10:32:12;;;;;;;;;;;;;;;;;;4954115;29;19938;-91
2022/10/20 10:34:41;;;;;;;;;;;;;;;;;;4953263;29;20032;-93
2022/10/20 10:37:18;;;;;;;;;;;;;;;;;;4950834;29;20475;-93
2022/10/20 10:39:43;;;;;;;;;;;;;;;;;;4953542;29;19926;-92
2022/10/20 10:42:28;;;;;;;;;;;;;;;;;;4953276;29;20071;-91
2022/10/20 10:44:59;;;;;;;;;;;;;;;;;;4953365;29;19919;-89
2022/10/20 10:47:28;;;;;;;;;;;;;;;;;;4946559;29;20025;-93
2022/10/20 10:49:56;;;;;;;;;;;;;;;;;;4945022;29;19919;-93
2022/10/20 10:52:40;;;;;;;;;;;;;;;;;;4942813;29;19923;-93
2022/10/20 10:55:17;;;;;;;;;;;;;;;;;;4945198;29;19923;-95
2022/10/20 10:57:48;;;;;;;;;;;;;;;;;;4945063;29;19918;-93
2022/10/20 11:00:19;;;;;;;;;;;;;;;;;;4943586;29;19919;-93
2022/10/20 11:03:03;;;;;;;;;;;;;;;;;;4944347;29;19919;-93
2022/10/20 11:05:47;;;;;;;;;;;;;;;;;;4941831;29;19919;-94
2022/10/20 11:08:21;;;;;;;;;;;;;;;;;;4943897;29;19925;-94
2022/10/20 11:10:55;;;;;;;;;;;;;;;;;;4945884;29;19926;-94
2022/10/20 11:13:30;;;;;;;;;;;;;;;;;;4951537;28;19930;-93
2022/10/20 11:16:34;;;;;;;;;;;;;;;;;;4957508;28;19923;-93
2022/10/20 11:19:19;;;;;;;;;;;;;;;;;;4960072;28;19906;-91
2022/10/20 11:21:57;;;;;;;;;;;;;;;;;;4906399;29;19923;-88
2022/10/20 11:24:41;;;;;;;;;;;;;;;;;;4928836;29;19938;-87
2022/10/20 11:27:09;;;;;;;;;;;;;;;;;;4933840;29;19922;-86
2022/10/20 11:29:36;;;;;;;;;;;;;;;;;;4941777;29;19946;-89
2022/10/20 11:32:08;;;;;;;;;;;;;;;;;;4940354;29;19918;-88
2022/10/20 11:34:46;;;;;;;;;;;;;;;;;;4938914;29;19922;-87
2022/10/20 11:37:23;;;;;;;;;;;;;;;;;;4938989;29;19919;-88
2022/10/20 11:40:07;;;;;;;;;;;;;;;;;;4939310;29;20301;-86
2022/10/20 11:42:58;;;;;;;;;;;;;;;;;;4941844;29;20437;-84
2022/10/20 11:45:24;;;;;;;;;;;;;;;;;;4933759;29;19983;-85
2022/10/20 11:47:51;;;;;;;;;;;;;;;;;;4919404;29;20001;-92
2022/10/20 11:50:17;;;;;;;;;;;;;;;;;;4917603;29;19977;-87
2022/10/20 11:53:01;;;;;;;;;;;;;;;;;;4900555;29;914160;-91
2022/10/20 11:55:27;;;;;;;;;;;;;;;;;;4928986;29;19923;-93
2022/10/20 11:58:04;;;;;;;;;;;;;;;;;;4926499;29;20388;-93
2022/10/20 12:00:32;;;;;;;;;;;;;;;;;;4917685;29;20107;-94
2022/10/20 12:02:58;;;;;;;;;;;;;;;;;;4932992;29;19941;-92
2022/10/20 12:05:29;;;;;;;;;;;;;;;;;;4918483;29;20362;-95
2022/10/20 12:08:07;;;;;;;;;;;;;;;;;;4918261;29;19919;-93
2022/10/20 12:10:39;;;;;;;;;;;;;;;;;;4921456;29;19927;-89
2022/10/20 12:13:43;;;;;;;;;;;;;;;;;;4931539;29;19945;-90
2022/10/20 12:16:08;;;;;;;;;;;;;;;;;;4912635;29;20015;-94
2022/10/20 12:18:34;;;;;;;;;;;;;;;;;;4920253;29;19954;-92
2022/10/20 12:21:01;;;;;;;;;;;;;;;;;;4921589;29;19923;-93
2022/10/20 12:24:02;;;;;;;;;;;;;;;;;;4940566;29;19926;-86
2022/10/20 12:26:33;;;;;;;;;;;;;;;;;;4909855;29;20400;-88
2022/10/20 12:28:59;;;;;;;;;;;;;;;;;;4940751;29;19926;-88
2022/10/20 12:31:44;;;;;;;;;;;;;;;;;;4940869;29;19919;-89
2022/10/20 12:34:21;;;;;;;;;;;;;;;;;;4940614;29;19926;-87
2022/10/20 12:36:47;;;;;;;;;;;;;;;;;;4939324;29;20294;-88
2022/10/20 12:39:14;;;;;;;;;;;;;;;;;;4940492;29;19923;-87
2022/10/20 12:42:00;;;;;;;;;;;;;;;;;;4941048;29;19923;-87
2022/10/20 12:44:26;;;;;;;;;;;;;;;;;;4940418;29;19918;-84
2022/10/20 12:46:56;;;;;;;;;;;;;;;;;;4940565;29;19926;-85
2022/10/20 12:49:32;;;;;;;;;;;;;;;;;;4940833;29;19945;-84
2022/10/20 12:51:58;;;;;;;;;;;;;;;;;;4940962;29;19923;-86
2022/10/20 12:54:29;;;;;;;;;;;;;;;;;;4940893;29;19966;-91
2022/10/20 12:57:00;;;;;;;;;;;;;;;;;;4940555;29;20054;-87
2022/10/20 12:59:28;;;;;;;;;;;;;;;;;;4941006;29;19919;-91
2022/10/20 13:02:09;;;;;;;;;;;;;;;;;;4942927;29;19919;-90
2022/10/20 13:04:54;;;;;;;;;;;;;;;;;;4941089;29;19941;-88
2022/10/20 13:07:39;;;;;;;;;;;;;;;;;;4935959;29;19926;-89
2022/10/20 13:10:39;;;;;;;;;;;;;;;;;;4936390;29;19970;-86
2022/10/20 13:13:05;;;;;;;;;;;;;;;;;;4901522;29;19962;-86
2022/10/20 13:15:37;;;;;;;;;;;;;;;;;;4900819;29;19963;-89
2022/10/20 13:18:12;;;;;;;;;;;;;;;;;;4900917;29;19919;-86
2022/10/20 13:20:58;;;;;;;;;;;;;;;;;;4901456;29;19919;-86
2022/10/20 13:23:28;;;;;;;;;;;;;;;;;;4900353;29;19962;-87
2022/10/20 13:25:58;;;;;;;;;;;;;;;;;;4899880;29;19919;-87
2022/10/20 13:28:27;;;;;;;;;;;;;;;;;;4901310;29;19920;-89
2022/10/20 13:31:11;;;;;;;;;;;;;;;;;;4900543;29;19919;-86
2022/10/20 13:33:39;;;;;;;;;;;;;;;;;;4901144;29;19928;-88
2022/10/20 13:36:14;;;;;;;;;;;;;;;;;;4902560;29;19919;-86
2022/10/20 13:38:39;;;;;;;;;;;;;;;;;;4884314;29;19926;-85
2022/10/20 13:41:05;;;;;;;;;;;;;;;;;;4902868;29;20017;-87
2022/10/20 13:43:39;;;;;;;;;;;;;;;;;;4903404;29;19919;-83
2022/10/20 13:46:15;;;;;;;;;;;;;;;;;;4905113;29;19959;-88
2022/10/20 13:49:13;;;;;;;;;;;;;;;;;;4952963;29;20017;-93
2022/10/20 13:51:43;;;;;;;;;;;;;;;;;;4927037;29;19926;-92
2022/10/20 13:54:15;;;;;;;;;;;;;;;;;;4938601;29;19919;-92
2022/10/20 13:56:47;;;;;;;;;;;;;;;;;;4953136;29;19950;-92
2022/10/20 13:59:12;;;;;;;;;;;;;;;;;;4938390;29;19923;-92
2022/10/20 14:01:38;;;;;;;;;;;;;;;;;;4938705;29;19926;-91
2022/10/20 14:04:18;;;;;;;;;;;;;;;;;;4938749;29;20279;-90
2022/10/20 14:06:45;;;;;;;;;;;;;;;;;;4937653;29;19923;-92
2022/10/20 14:09:18;;;;;;;;;;;;;;;;;;4938878;29;20005;-86
2022/10/20 14:11:45;;;;;;;;;;;;;;;;;;4939050;29;19926;-93
2022/10/20 14:14:17;;;;;;;;;;;;;;;;;;4933339;29;19926;-87
2022/10/20 14:16:57;;;;;;;;;;;;;;;;;;4941860;29;19981;-88
2022/10/20 14:19:26;;;;;;;;;;;;;;;;;;4936159;29;19918;-87
2022/10/20 14:21:55;;;;;;;;;;;;;;;;;;4937143;29;19925;-91
2022/10/20 14:24:27;;;;;;;;;;;;;;;;;;4935041;29;19929;-92
2022/10/20 14:26:53;;;;;;;;;;;;;;;;;;4937682;29;19945;-93
2022/10/20 14:29:19;;;;;;;;;;;;;;;;;;4938574;29;20003;-93
2022/10/20 14:31:45;;;;;;;;;;;;;;;;;;4936406;29;19933;-92
2022/10/20 14:34:18;;;;;;;;;;;;;;;;;;4936041;29;19922;-93
2022/10/20 14:36:44;;;;;;;;;;;;;;;;;;4936686;29;19926;-93
2022/10/20 14:39:28;;;;;;;;;;;;;;;;;;4936654;29;19927;-90
2022/10/20 14:41:55;;;;;;;;;;;;;;;;;;4935491;29;20006;-94
2022/10/20 14:44:22;;;;;;;;;;;;;;;;;;4937424;29;19958;-92
2022/10/20 14:46:48;;;;;;;;;;;;;;;;;;4938260;29;19919;-92
2022/10/20 14:49:36;;;;;;;;;;;;;;;;;;4935933;29;19923;-87
2022/10/20 14:52:02;;;;;;;;;;;;;;;;;;4931855;29;19923;-89
2022/10/20 14:54:27;;;;;;;;;;;;;;;;;;4936957;29;19919;-90
2022/10/20 14:56:53;;;;;;;;;;;;;;;;;;4941897;29;19919;-87
2022/10/20 15:02:09;;;;;;;;;;;;;;;;;;4968703;23;19962;-88
2022/10/20 15:04:36;;;;;;;;;;;;;;;;;;4963347;29;20416;-87
2022/10/20 15:07:24;;;;;;;;;;;;;;;;;;4946933;29;19986;-88
2022/10/20 15:09:52;;;;;;;;;;;;;;;;;;4966530;28;19930;-86
2022/10/20 15:12:18;;;;;;;;;;;;;;;;;;4970573;28;19949;-87
2022/10/20 15:14:52;;;;;;;;;;;;;;;;;;4956024;29;19922;-93
2022/10/20 15:17:31;;;;;;;;;;;;;;;;;;4931508;29;19926;-90
2022/10/20 15:19:56;;;;;;;;;;;;;;;;;;4944958;29;20013;-92
2022/10/20 15:22:22;;;;;;;;;;;;;;;;;;4942553;29;19964;-90
2022/10/20 15:24:48;;;;;;;;;;;;;;;;;;4959318;29;19990;-87
2022/10/20 15:27:15;;;;;;;;;;;;;;;;;;4942164;29;19930;-92
2022/10/20 15:29:48;;;;;;;;;;;;;;;;;;4958956;29;19934;-87
2022/10/20 15:32:14;;;;;;;;;;;;;;;;;;4958224;28;19918;-92
2022/10/20 15:34:39;;;;;;;;;;;;;;;;;;4940823;29;19934;-90
2022/10/20 15:37:05;;;;;;;;;;;;;;;;;;4938752;29;20148;-90
2022/10/20 15:39:30;;;;;;;;;;;;;;;;;;4940210;29;19922;-91
2022/10/20 15:41:59;;;;;;;;;;;;;;;;;;4953703;29;19918;-92
2022/10/20 15:44:24;;;;;;;;;;;;;;;;;;4958843;29;19986;-92
2022/10/20 15:46:53;;;;;;;;;;;;;;;;;;4959340;29;19958;-93
2022/10/20 15:49:19;;;;;;;;;;;;;;;;;;4964131;28;19966;-89
2022/10/20 15:51:45;;;;;;;;;;;;;;;;;;4976533;29;19909;-88
2022/10/20 15:54:15;;;;;;;;;;;;;;;;;;4976087;29;19922;-88
2022/10/20 15:56:42;;;;;;;;;;;;;;;;;;4975672;29;19918;-93
2022/10/20 15:59:07;;;;;;;;;;;;;;;;;;4961893;29;19918;-92
2022/10/20 16:01:33;;;;;;;;;;;;;;;;;;4956875;29;19923;-90
2022/10/20 16:04:00;;;;;;;;;;;;;;;;;;4938777;29;19926;-88
2022/10/20 16:06:25;;;;;;;;;;;;;;;;;;4956392;29;20262;-89
2022/10/20 16:08:51;;;;;;;;;;;;;;;;;;4956291;29;20366;-89
2022/10/20 16:11:17;;;;;;;;;;;;;;;;;;4955479;29;20416;-90
2022/10/20 16:13:43;;;;;;;;;;;;;;;;;;4955944;29;19919;-93
2022/10/20 16:16:11;;;;;;;;;;;;;;;;;;4956726;29;20289;-91
2022/10/20 16:18:36;;;;;;;;;;;;;;;;;;4957838;29;19919;-91
2022/10/20 16:21:05;;;;;;;;;;;;;;;;;;4957039;29;20289;-90
2022/10/20 16:23:35;;;;;;;;;;;;;;;;;;4955237;29;19924;-86
2022/10/20 16:26:03;;;;;;;;;;;;;;;;;;4939373;29;19926;-87
2022/10/20 16:28:28;;;;;;;;;;;;;;;;;;4955933;29;20021;-87
2022/10/20 16:31:14;;;;;;;;;;;;;;;;;;4956228;29;20009;-87
2022/10/20 16:33:40;;;;;;;;;;;;;;;;;;4929279;28;19918;-85
2022/10/20 16:36:15;;;;;;;;;;;;;;;;;;4937946;29;19926;-87
2022/10/20 16:38:46;;;;;;;;;;;;;;;;;;4958633;29;19925;-86
2022/10/20 16:41:14;;;;;;;;;;;;;;;;;;4957123;29;19938;-86
2022/10/20 16:43:41;;;;;;;;;;;;;;;;;;4957766;29;19918;-86
2022/10/20 16:46:10;;;;;;;;;;;;;;;;;;4957784;29;20009;-89
2022/10/20 16:48:37;;;;;;;;;;;;;;;;;;4939980;29;19918;-87
2022/10/20 16:51:09;;;;;;;;;;;;;;;;;;4940161;29;19922;-87
2022/10/20 16:53:36;;;;;;;;;;;;;;;;;;4924229;29;19919;-85
2022/10/20 16:56:02;;;;;;;;;;;;;;;;;;4943343;28;19923;-87
2022/10/20 16:59:07;;;;;;;;;;;;;;;;;;4959703;29;19922;-89
2022/10/20 17:01:32;;;;;;;;;;;;;;;;;;4953607;29;20285;-86
2022/10/20 17:03:57;;;;;;;;;;;;;;;;;;4954726;29;19949;-88